Terminal Aerodrome Forecast
Issued by NWS Sioux Falls, SD

Home | Current Version | Previous Version | Graphics & Text | Print | Product List | Glossary On
Versions: 1 2 3 4 5 6 7 8 9 10 11 12 13
000
FTUS43 KFSD 011720
TAFHON
TAF
KHON 011720Z 0118/0218 22012G18KT P6SM SCT100 SCT250
     FM020100 24007KT P6SM SCT200
     FM021400 33013KT P6SM SKC=

USA.gov is the U.S. government's official web portal to all federal, state and local government web resources and services.